Foshan, China
Current Conditions -  °F | °C
As of 6:30 AM on Saturday 29 Nov 2014 (Local Time) from ZGGG Reporting Station
Haze Haze  
Wind Chill: 73°   Ceiling: 2000
Heat Index: 73°   Visibility: 2.1mi
Dew Point: 72°   Wind: 0mph
Humidity: 94%   Direction: NA
Pressure: 29.91"   Gusts: NA
Location:  23.03°N, 113.12°E
Report Text: ZGGG 282230Z 00000MPS 3500 BR BKN020 23/22 Q1013 BECMGTL23302500 BR
Loading
Personal Weather Stations






























Interactive Weather Map New forecast layout! Learn more

10-Day Weather Forecast

Advertisements
Track Severe Weather on mobile